createdAt,value
2019-02-09T00:03:07.746Z,4.80
2019-02-09T00:10:38.990Z,5.20
2019-02-09T00:13:08.930Z,5.55
2019-02-09T00:15:38.973Z,4.60
2019-02-09T00:18:09.772Z,5.20
2019-02-09T00:20:39.408Z,4.90
2019-02-09T00:23:10.020Z,4.90
2019-02-09T00:25:41.763Z,4.30
2019-02-09T00:33:10.854Z,4.20
2019-02-09T00:37:38.122Z,4.10
2019-02-09T00:40:07.742Z,4.30
2019-02-09T00:42:38.663Z,5.00
2019-02-09T00:45:08.856Z,4.50
2019-02-09T00:51:13.677Z,4.00
2019-02-09T00:53:42.301Z,4.60
2019-02-09T00:56:12.694Z,4.10
2019-02-09T00:58:41.968Z,4.20
2019-02-09T01:01:29.916Z,4.10
2019-02-09T01:03:58.821Z,4.40
2019-02-09T01:06:27.769Z,4.40
2019-02-09T01:09:37.759Z,4.27
2019-02-09T01:12:08.645Z,4.35
2019-02-09T01:14:37.740Z,4.05
2019-02-09T01:17:09.641Z,4.15
2019-02-09T01:19:38.812Z,4.47
2019-02-09T01:24:39.100Z,3.90
2019-02-09T01:27:08.770Z,3.60
2019-02-09T01:29:39.658Z,4.15
2019-02-09T01:32:08.779Z,4.10
2019-02-09T01:34:37.847Z,3.90
2019-02-09T01:37:08.641Z,3.37
2019-02-09T01:39:37.794Z,3.80
2019-02-09T01:44:35.643Z,3.90
2019-02-09T01:47:06.672Z,4.07
2019-02-09T01:49:35.901Z,3.95
2019-02-09T01:52:06.100Z,4.00
2019-02-09T01:54:37.029Z,3.80
2019-02-09T01:57:06.707Z,3.45
2019-02-09T01:59:35.377Z,3.43
2019-02-09T02:02:05.514Z,3.60
2019-02-09T02:04:35.875Z,3.53
2019-02-09T02:10:26.836Z,3.80
2019-02-09T02:15:24.350Z,3.40
2019-02-09T02:17:53.647Z,3.30
2019-02-09T02:20:24.932Z,3.20
2019-02-09T02:22:53.887Z,3.40
2019-02-09T02:25:23.742Z,3.47
2019-02-09T02:30:27.057Z,3.13
2019-02-09T02:32:55.381Z,3.17
2019-02-09T02:35:24.657Z,3.80
2019-02-09T02:37:52.600Z,3.00
2019-02-09T02:40:21.421Z,3.03
2019-02-09T02:42:49.777Z,3.15
2019-02-09T02:45:18.835Z,2.67
2019-02-09T02:47:47.236Z,2.80
2019-02-09T02:50:35.111Z,3.50
2019-02-09T02:53:04.402Z,3.20
2019-02-09T02:55:33.020Z,2.70
2019-02-09T02:58:00.923Z,2.65
2019-02-09T03:03:18.892Z,2.70
2019-02-09T03:05:47.789Z,2.75
2019-02-09T03:08:15.849Z,2.65
2019-02-09T03:11:04.706Z,3.10
2019-02-09T03:16:02.065Z,2.80
2019-02-09T03:18:30.820Z,3.40
2019-02-09T03:21:18.871Z,2.80
2019-02-09T03:23:48.701Z,2.50
2019-02-09T03:26:18.584Z,2.70
2019-02-09T03:28:47.898Z,2.80
2019-02-09T03:31:19.257Z,2.65
2019-02-09T03:36:16.847Z,2.90
2019-02-09T03:38:48.026Z,2.20
2019-02-09T03:41:17.590Z,2.53
2019-02-09T03:43:47.949Z,2.70
2019-02-09T03:46:16.931Z,2.90
2019-02-09T03:48:47.336Z,2.80
2019-02-09T03:51:17.241Z,2.40
2019-02-09T03:53:48.361Z,2.60
2019-02-09T03:58:47.811Z,2.40
2019-02-09T04:01:17.015Z,2.60
2019-02-09T04:03:47.833Z,2.90
2019-02-09T04:06:17.683Z,2.40
2019-02-09T04:13:45.840Z,2.30
2019-02-09T04:18:43.947Z,2.60
2019-02-09T04:21:13.889Z,2.40
2019-02-09T04:23:43.838Z,2.43
2019-02-09T04:26:13.780Z,2.05
2019-02-09T04:31:27.759Z,2.10
2019-02-09T04:33:58.401Z,2.20
2019-02-09T04:38:57.806Z,2.40
2019-02-09T04:41:27.711Z,2.30
2019-02-09T04:43:57.137Z,2.10
2019-02-09T04:46:26.699Z,2.10
2019-02-09T04:48:56.345Z,2.05
2019-02-09T04:51:28.122Z,2.30
2019-02-09T04:53:57.227Z,2.40
2019-02-09T04:56:28.748Z,2.20
2019-02-09T04:58:58.853Z,2.25
2019-02-09T05:01:29.521Z,2.10
2019-02-09T05:03:59.783Z,2.00
2019-02-09T05:09:01.711Z,2.00
2019-02-09T05:16:28.822Z,2.10
2019-02-09T05:18:57.758Z,2.20
2019-02-09T05:21:26.841Z,2.10
2019-02-09T05:26:24.961Z,2.00
2019-02-09T05:31:23.775Z,2.00
2019-02-09T05:38:50.775Z,2.10
2019-02-09T05:41:19.803Z,1.60
2019-02-09T05:43:48.761Z,2.20
2019-02-09T05:48:45.379Z,1.70
2019-02-09T05:51:13.854Z,1.90
2019-02-09T05:53:42.139Z,1.50
2019-02-09T05:56:10.294Z,2.00
2019-02-09T05:58:39.532Z,1.70
2019-02-09T06:01:07.349Z,1.53
2019-02-09T06:03:34.832Z,1.80
2019-02-09T06:06:02.457Z,2.05
2019-02-09T06:10:57.841Z,1.60
2019-02-09T06:13:25.453Z,1.80
2019-02-09T06:15:53.142Z,2.10
2019-02-09T06:18:21.650Z,1.60
2019-02-09T06:20:49.617Z,1.80
2019-02-09T06:23:18.036Z,1.50
2019-02-09T06:25:46.977Z,1.70
2019-02-09T06:28:14.706Z,1.50
2019-02-09T06:30:43.685Z,1.70
2019-02-09T06:33:11.474Z,1.80
2019-02-09T06:35:38.899Z,1.75
2019-02-09T06:38:07.814Z,1.60
2019-02-09T06:40:35.132Z,1.80
2019-02-09T06:43:03.815Z,1.60
2019-02-09T06:45:32.334Z,1.70
2019-02-09T06:48:24.886Z,1.57
2019-02-09T06:50:54.323Z,1.60
2019-02-09T06:53:22.058Z,1.67
2019-02-09T06:55:49.581Z,1.50
2019-02-09T06:58:16.921Z,2.10
2019-02-09T07:00:45.716Z,1.60
2019-02-09T07:03:14.741Z,1.57
2019-02-09T07:05:42.769Z,2.00
2019-02-09T07:10:39.453Z,1.82
2019-02-09T07:13:07.681Z,1.90
2019-02-09T07:15:35.041Z,1.90
2019-02-09T07:18:04.622Z,1.60
2019-02-09T07:20:33.346Z,1.50
2019-02-09T07:23:01.280Z,1.60
2019-02-09T07:25:28.956Z,1.40
2019-02-09T07:27:56.899Z,1.53
2019-02-09T07:30:25.618Z,1.95
2019-02-09T07:32:53.068Z,1.90
2019-02-09T07:35:20.474Z,1.35
2019-02-09T07:37:48.492Z,1.30
2019-02-09T07:40:17.767Z,1.20
2019-02-09T07:42:46.997Z,1.50
2019-02-09T07:45:19.047Z,1.45
2019-02-09T07:47:47.073Z,1.50
2019-02-09T07:50:15.904Z,1.40
2019-02-09T07:52:45.395Z,1.45
2019-02-09T07:55:14.492Z,1.80
2019-02-09T07:57:43.606Z,1.50
2019-02-09T08:00:15.599Z,1.55
2019-02-09T08:02:43.854Z,1.65
2019-02-09T08:05:11.525Z,1.40
2019-02-09T08:10:11.198Z,1.40
2019-02-09T08:12:38.809Z,1.50
2019-02-09T08:15:11.221Z,1.40
2019-02-09T08:17:39.013Z,1.50
2019-02-09T08:20:08.563Z,1.80
2019-02-09T08:22:36.660Z,1.60
2019-02-09T08:25:05.721Z,1.50
2019-02-09T08:27:34.074Z,1.50
2019-02-09T08:30:01.549Z,1.60
2019-02-09T08:32:29.727Z,1.40
2019-02-09T08:34:57.953Z,1.30
2019-02-09T08:37:25.350Z,1.37
2019-02-09T08:39:52.886Z,1.60
2019-02-09T08:42:20.919Z,1.47
2019-02-09T08:44:48.455Z,1.30
2019-02-09T08:47:16.796Z,1.40
2019-02-09T08:49:45.568Z,1.30
2019-02-09T08:52:14.321Z,1.10
2019-02-09T08:54:43.455Z,1.20
2019-02-09T08:57:11.198Z,1.20
2019-02-09T08:59:38.863Z,1.30
2019-02-09T09:02:06.228Z,1.37
2019-02-09T09:04:34.233Z,1.20
2019-02-09T09:07:01.901Z,1.30
2019-02-09T09:09:29.843Z,1.60
2019-02-09T09:11:57.428Z,1.53
2019-02-09T09:14:25.618Z,1.75
2019-02-09T09:16:53.081Z,1.40
2019-02-09T09:19:21.394Z,1.40
2019-02-09T09:21:49.522Z,1.70
2019-02-09T09:24:17.765Z,1.40
2019-02-09T09:29:14.516Z,1.33
2019-02-09T09:31:42.481Z,1.30
2019-02-09T09:34:10.481Z,1.60
2019-02-09T09:36:38.042Z,1.60
2019-02-09T09:39:08.546Z,1.37
2019-02-09T09:43:31.787Z,1.47
2019-02-09T09:45:59.110Z,1.20
2019-02-09T09:51:12.504Z,1.07
2019-02-09T09:53:42.313Z,1.32
2019-02-09T09:56:10.250Z,1.45
2019-02-09T09:58:40.114Z,1.20
2019-02-09T10:01:07.874Z,1.63
2019-02-09T10:05:58.969Z,1.40
2019-02-09T10:08:28.144Z,1.20
2019-02-09T10:10:56.225Z,1.30
2019-02-09T10:13:27.948Z,1.40
2019-02-09T10:15:55.810Z,1.50
2019-02-09T10:18:24.006Z,1.57
2019-02-09T10:20:54.037Z,1.30
2019-02-09T10:23:22.425Z,1.30
2019-02-09T10:25:51.164Z,1.30
2019-02-09T10:28:19.517Z,1.30
2019-02-09T10:30:49.248Z,1.50
2019-02-09T10:33:17.097Z,1.80
2019-02-09T10:35:46.789Z,1.70
2019-02-09T10:38:16.620Z,1.60
2019-02-09T10:40:45.613Z,1.90
2019-02-09T10:43:14.652Z,1.75
2019-02-09T10:45:42.972Z,1.55
2019-02-09T10:48:12.967Z,1.55
2019-02-09T10:50:44.992Z,1.60
2019-02-09T10:53:14.627Z,1.85
2019-02-09T10:55:42.039Z,2.00
2019-02-09T10:58:10.661Z,1.80
2019-02-09T11:01:06.928Z,1.50
2019-02-09T11:03:35.580Z,1.50
2019-02-09T11:06:03.083Z,1.30
2019-02-09T11:08:32.313Z,1.70
2019-02-09T11:10:59.750Z,2.20
2019-02-09T11:13:28.891Z,1.50
2019-02-09T11:15:57.230Z,1.75
2019-02-09T11:18:27.291Z,1.85
2019-02-09T11:20:55.148Z,1.70
2019-02-09T11:23:25.035Z,1.40
2019-02-09T11:25:52.928Z,1.50
2019-02-09T11:28:21.561Z,1.60
2019-02-09T11:33:18.726Z,2.27
2019-02-09T11:35:46.993Z,1.50
2019-02-09T11:38:16.820Z,1.63
2019-02-09T11:40:44.569Z,1.47
2019-02-09T11:43:14.182Z,1.37
2019-02-09T11:45:41.891Z,1.50
2019-02-09T11:48:11.446Z,1.80
2019-02-09T11:53:09.061Z,1.80
2019-02-09T11:55:37.992Z,1.70
2019-02-09T11:58:07.604Z,1.90
2019-02-09T12:00:42.420Z,2.40
2019-02-09T12:03:14.888Z,2.20
2019-02-09T12:08:13.222Z,2.40
2019-02-09T12:10:43.250Z,2.23
2019-02-09T12:13:14.225Z,1.90
2019-02-09T12:15:44.577Z,2.40
2019-02-09T12:18:14.906Z,2.10
2019-02-09T12:23:14.276Z,2.10
2019-02-09T12:25:43.754Z,2.00
2019-02-09T12:28:11.938Z,2.10
2019-02-09T12:30:40.999Z,1.80
2019-02-09T12:33:09.167Z,2.10
2019-02-09T12:35:39.214Z,1.90
2019-02-09T12:38:07.797Z,2.40
2019-02-09T12:42:14.186Z,1.97
2019-02-09T12:44:45.898Z,1.90
2019-02-09T12:47:15.922Z,2.00
2019-02-09T12:49:45.012Z,2.25
2019-02-09T12:52:14.106Z,2.10
2019-02-09T12:54:43.858Z,2.20
2019-02-09T12:57:14.541Z,1.85
2019-02-09T12:59:44.388Z,1.90
2019-02-09T13:02:11.734Z,2.20
2019-02-09T13:04:40.738Z,1.75
2019-02-09T13:07:09.094Z,1.90
2019-02-09T13:09:38.707Z,1.75
2019-02-09T13:12:07.894Z,2.10
2019-02-09T13:14:38.150Z,1.80
2019-02-09T13:19:36.073Z,1.80
2019-02-09T13:22:04.836Z,2.10
2019-02-09T13:24:34.192Z,2.15
2019-02-09T13:27:05.009Z,2.50
2019-02-09T13:29:34.673Z,2.30
2019-02-09T13:32:04.837Z,2.40
2019-02-09T13:36:59.881Z,1.85
2019-02-09T13:39:30.304Z,2.30
2019-02-09T13:41:59.505Z,2.10
2019-02-09T13:44:29.250Z,1.85
2019-02-09T13:46:58.921Z,2.67
2019-02-09T13:49:27.324Z,2.20
2019-02-09T13:51:56.569Z,2.30
2019-02-09T13:54:25.128Z,2.60
2019-02-09T13:56:52.826Z,2.35
2019-02-09T13:59:22.412Z,2.20
2019-02-09T14:01:49.827Z,2.55
2019-02-09T14:04:18.847Z,2.50
2019-02-09T14:06:47.788Z,2.30
2019-02-09T14:09:17.342Z,2.80
2019-02-09T14:11:48.099Z,2.73
2019-02-09T14:14:17.556Z,2.20
2019-02-09T14:19:14.971Z,2.60
2019-02-09T14:24:12.815Z,2.35
2019-02-09T14:26:41.197Z,2.27
2019-02-09T14:29:11.439Z,2.53
2019-02-09T14:31:40.885Z,2.75
2019-02-09T14:34:09.997Z,2.50
2019-02-09T14:36:38.259Z,2.53
2019-02-09T14:39:10.847Z,2.85
2019-02-09T14:41:40.536Z,3.15
2019-02-09T14:44:10.532Z,2.30
2019-02-09T14:46:40.029Z,2.80
2019-02-09T14:49:12.231Z,2.65
2019-02-09T14:51:42.009Z,2.20
2019-02-09T14:54:12.401Z,2.40
2019-02-09T14:56:41.280Z,2.30
2019-02-09T14:59:10.374Z,2.65
2019-02-09T15:01:41.471Z,2.83
2019-02-09T15:06:54.223Z,2.65
2019-02-09T15:09:22.770Z,2.20
2019-02-09T15:11:51.353Z,2.55
2019-02-09T15:14:19.314Z,2.13
2019-02-09T15:16:51.249Z,2.60
2019-02-09T15:19:25.017Z,2.30
2019-02-09T15:21:58.458Z,2.45
2019-02-09T15:24:29.456Z,2.35
2019-02-09T15:26:59.687Z,2.20
2019-02-09T15:29:29.255Z,2.55
2019-02-09T15:31:59.683Z,2.43
2019-02-09T15:34:29.903Z,2.10
2019-02-09T15:36:59.854Z,2.58
2019-02-09T15:39:28.580Z,2.47
2019-02-09T15:41:58.631Z,2.40
2019-02-09T15:46:57.662Z,2.15
2019-02-09T15:49:27.958Z,2.10
2019-02-09T15:51:57.712Z,2.10
2019-02-09T15:54:26.467Z,2.10
2019-02-09T15:59:23.657Z,2.37
2019-02-09T16:01:52.645Z,2.20
2019-02-09T16:04:21.741Z,1.80
2019-02-09T16:06:52.150Z,2.00
2019-02-09T16:09:21.302Z,2.15
2019-02-09T16:11:50.773Z,2.60
2019-02-09T16:16:49.592Z,2.55
2019-02-09T16:19:21.995Z,1.70
2019-02-09T16:21:50.635Z,2.00
2019-02-09T16:24:19.060Z,1.90
2019-02-09T16:26:48.378Z,1.85
2019-02-09T16:29:18.185Z,1.60
2019-02-09T16:31:46.930Z,2.00
2019-02-09T16:36:46.319Z,2.10
2019-02-09T16:41:59.272Z,2.10
2019-02-09T16:44:28.080Z,2.15
2019-02-09T16:46:57.113Z,2.25
2019-02-09T16:50:55.118Z,2.00
2019-02-09T16:53:23.252Z,2.30
2019-02-09T16:55:53.002Z,2.80
2019-02-09T16:58:21.458Z,2.50
2019-02-09T17:00:51.104Z,2.30
2019-02-09T17:03:19.002Z,2.60
2019-02-09T17:05:48.638Z,2.50
2019-02-09T17:08:17.327Z,3.30
2019-02-09T17:10:48.008Z,2.80
2019-02-09T17:13:17.736Z,2.20
2019-02-09T17:15:48.124Z,2.40
2019-02-09T17:18:17.691Z,2.40
2019-02-09T17:20:47.891Z,3.00
2019-02-09T17:23:16.381Z,2.40
2019-02-09T17:25:45.673Z,3.42
2019-02-09T17:28:13.942Z,3.57
2019-02-09T17:30:42.228Z,4.00
2019-02-09T17:33:12.213Z,2.80
2019-02-09T17:35:44.119Z,2.95
2019-02-09T17:38:13.575Z,2.60
2019-02-09T17:40:46.783Z,2.75
2019-02-09T17:43:23.282Z,2.40
2019-02-09T17:46:06.030Z,2.90
2019-02-09T17:48:36.392Z,2.60
2019-02-09T17:51:06.511Z,3.40
2019-02-09T17:53:35.829Z,3.23
2019-02-09T17:56:06.178Z,3.00
2019-02-09T17:58:34.827Z,3.80
2019-02-09T18:01:06.255Z,3.40
2019-02-09T18:06:07.248Z,3.10
2019-02-09T18:08:37.249Z,3.30
2019-02-09T18:11:06.785Z,3.30
2019-02-09T18:15:32.398Z,4.90
2019-02-09T18:18:02.121Z,3.25
2019-02-09T18:20:32.670Z,4.50
2019-02-09T18:23:01.831Z,3.60
2019-02-09T18:25:31.271Z,4.20
2019-02-09T18:30:30.157Z,3.90
2019-02-09T18:32:57.792Z,4.20
2019-02-09T18:35:28.344Z,4.60
2019-02-09T18:37:58.329Z,4.40
2019-02-09T18:42:01.723Z,3.70
2019-02-09T18:44:31.204Z,4.05
2019-02-09T18:47:00.715Z,4.20
2019-02-09T18:49:45.789Z,4.50
2019-02-09T18:52:14.911Z,4.40
2019-02-09T18:54:44.211Z,4.45
2019-02-09T18:57:13.529Z,4.45
2019-02-09T18:59:43.404Z,4.85
2019-02-09T19:04:28.505Z,4.05
2019-02-09T19:06:56.768Z,4.40
2019-02-09T19:09:27.137Z,4.80
2019-02-09T19:11:56.542Z,4.40
2019-02-09T19:14:25.593Z,4.60
2019-02-09T19:17:30.106Z,4.80
2019-02-09T19:22:28.809Z,4.05
2019-02-09T19:24:58.105Z,4.10
2019-02-09T19:27:26.200Z,4.30
2019-02-09T19:29:55.503Z,4.05
2019-02-09T19:32:26.125Z,7.17
2019-02-09T19:34:55.100Z,4.90
2019-02-09T19:37:23.379Z,5.05
2019-02-09T19:41:21.405Z,7.20
2019-02-09T19:43:49.362Z,7.00
2019-02-09T19:46:16.696Z,7.35
2019-02-09T19:48:45.438Z,5.80
2019-02-09T19:51:13.472Z,5.30
2019-02-09T19:53:41.271Z,5.20
2019-02-09T19:56:10.468Z,5.00
2019-02-09T19:58:39.390Z,5.00
2019-02-09T20:01:07.533Z,4.80
2019-02-09T20:03:36.958Z,6.10
2019-02-09T20:06:06.287Z,5.55
2019-02-09T20:08:33.901Z,5.30
2019-02-09T20:11:01.455Z,4.60
2019-02-09T20:13:28.806Z,4.80
2019-02-09T20:15:57.619Z,4.10
2019-02-09T20:18:27.017Z,4.40
2019-02-09T20:20:55.952Z,4.20
2019-02-09T20:23:24.416Z,4.35
2019-02-09T20:25:51.779Z,4.10
2019-02-09T20:28:20.310Z,4.50
2019-02-09T20:30:49.549Z,4.50
2019-02-09T20:33:17.488Z,4.00
2019-02-09T20:35:45.564Z,4.50
2019-02-09T20:38:13.566Z,4.43
2019-02-09T20:40:47.643Z,4.80
2019-02-09T20:43:16.856Z,4.60
2019-02-09T20:48:13.816Z,4.60
2019-02-09T20:50:43.031Z,4.30
2019-02-09T20:53:10.748Z,4.60
2019-02-09T20:55:39.448Z,4.50
2019-02-09T20:58:09.056Z,4.20
2019-02-09T21:00:37.190Z,4.20
2019-02-09T21:03:05.630Z,4.10
2019-02-09T21:05:36.543Z,4.60
2019-02-09T21:08:03.773Z,4.10
2019-02-09T21:13:15.211Z,4.15
2019-02-09T21:15:43.003Z,4.17
2019-02-09T21:18:13.202Z,5.10
2019-02-09T21:20:41.856Z,4.47
2019-02-09T21:23:11.339Z,3.80
2019-02-09T21:25:42.183Z,4.40
2019-02-09T21:28:12.264Z,4.10
2019-02-09T21:30:40.055Z,4.47
2019-02-09T21:33:09.256Z,4.10
2019-02-09T21:35:43.692Z,3.90
2019-02-09T21:38:10.433Z,4.25
2019-02-09T21:40:38.538Z,4.40
2019-02-09T21:45:44.593Z,3.50
2019-02-09T21:49:15.848Z,3.93
2019-02-09T21:51:44.508Z,3.70
2019-02-09T21:54:13.435Z,3.60
2019-02-09T21:56:43.124Z,4.00
2019-02-09T21:59:12.184Z,3.40
2019-02-09T22:01:41.781Z,3.40
2019-02-09T22:04:11.297Z,4.15
2019-02-09T22:08:19.565Z,3.50
2019-02-09T22:10:44.823Z,3.40
2019-02-09T22:13:13.611Z,3.95
2019-02-09T22:15:41.499Z,3.50
2019-02-09T22:18:11.129Z,3.50
2019-02-09T22:20:40.555Z,3.67
2019-02-09T22:23:10.065Z,2.70
2019-02-09T22:25:39.541Z,3.70
2019-02-09T22:28:08.709Z,3.70
2019-02-09T22:30:38.231Z,2.60
2019-02-09T22:33:07.935Z,3.07
2019-02-09T22:35:40.945Z,4.20
2019-02-09T22:38:12.769Z,3.40
2019-02-09T22:40:42.444Z,3.05
2019-02-09T22:43:12.081Z,2.95
2019-02-09T22:45:43.197Z,3.80
2019-02-09T22:48:12.789Z,3.50
2019-02-09T22:50:44.060Z,2.75
2019-02-09T22:53:12.933Z,3.50
2019-02-09T22:55:42.033Z,3.20
2019-02-09T22:58:10.731Z,3.40
2019-02-09T23:01:18.395Z,2.80
2019-02-09T23:04:08.981Z,3.15
2019-02-09T23:07:03.136Z,4.20
2019-02-09T23:09:32.864Z,3.60
2019-02-09T23:12:01.571Z,2.85
2019-02-09T23:14:30.405Z,2.90
2019-02-09T23:16:58.594Z,3.30
2019-02-09T23:19:28.205Z,3.60
2019-02-09T23:21:58.085Z,2.80
2019-02-09T23:24:28.049Z,3.20
2019-02-09T23:26:59.206Z,2.77
2019-02-09T23:29:28.099Z,3.40
2019-02-09T23:31:56.648Z,2.80
2019-02-09T23:34:26.213Z,3.00
2019-02-09T23:36:55.632Z,2.80
2019-02-09T23:39:24.673Z,3.40
2019-02-09T23:41:54.076Z,3.20
2019-02-09T23:44:23.588Z,3.25
2019-02-09T23:46:53.891Z,4.60
2019-02-09T23:49:23.125Z,4.05
2019-02-09T23:51:52.479Z,3.20
2019-02-09T23:54:22.873Z,3.70
2019-02-09T23:56:52.309Z,3.40
